Time;durP1;ratioP1;P1;durP2;ratioP2;P2;SDS_P1;SDS_P2;PMS_P1;PMS_P2;Temp;Humidity;BMP_temperature;BMP_pressure;BME280_temperature;BME280_humidity;BME280_pressure;Samples;Min_cycle;Max_cycle;Signal;HPM_P1;HPM_P2
2024/03/06 00:01:25;;;;;;;35.60;22.40;;;;;;;5.30;88.56;100472.44;131004;1259;106627;-81
2024/03/06 00:04:31;;;;;;;37.90;24.00;;;;;;;5.24;88.96;100469.32;130876;1256;107635;-81
2024/03/06 00:07:37;;;;;;;37.00;23.80;;;;;;;5.20;89.22;100472.79;130981;1259;108362;-82
2024/03/06 00:10:43;;;;;;;36.00;24.30;;;;;;;5.17;89.19;100476.55;131004;1260;107951;-81
2024/03/06 00:13:49;;;;;;;36.20;24.00;;;;;;;5.13;89.52;100478.23;130985;1258;107759;-81
2024/03/06 00:16:55;;;;;;;35.40;23.90;;;;;;;5.11;89.11;100473.30;130792;1255;107925;-81
2024/03/06 00:20:01;;;;;;;30.60;19.80;;;;;;;5.15;89.18;100480.06;130799;1260;107271;-81
2024/03/06 00:23:07;;;;;;;33.00;21.40;;;;;;;5.14;89.36;100483.10;130910;1259;107972;-82
2024/03/06 00:26:12;;;;;;;32.30;22.10;;;;;;;5.10;89.14;100482.70;130873;1256;107569;-81
2024/03/06 00:29:18;;;;;;;33.30;22.90;;;;;;;5.12;89.48;100481.14;130843;1255;107412;-82
2024/03/06 00:32:24;;;;;;;37.30;23.10;;;;;;;5.15;89.64;100489.61;130790;1256;107786;-81
2024/03/06 00:35:29;;;;;;;32.00;21.70;;;;;;;5.11;89.52;100485.10;130855;1256;107472;-82
2024/03/06 00:38:35;;;;;;;34.80;23.30;;;;;;;5.05;90.01;100487.44;130879;1258;107691;-81
2024/03/06 00:41:40;;;;;;;31.30;20.60;;;;;;;4.99;89.82;100490.41;130978;1255;106695;-81
2024/03/06 00:44:46;;;;;;;32.50;20.90;;;;;;;4.96;90.06;100489.92;130976;1258;108549;-82
2024/03/06 00:47:52;;;;;;;29.90;19.70;;;;;;;4.94;90.22;100486.86;130832;1256;107677;-82
2024/03/06 00:50:58;;;;;;;34.90;21.80;;;;;;;4.95;90.47;100488.21;130839;1255;107720;-81
2024/03/06 00:54:04;;;;;;;34.70;23.10;;;;;;;4.99;90.41;100489.00;130795;1258;107719;-81
2024/03/06 00:57:10;;;;;;;37.00;24.30;;;;;;;5.02;90.19;100490.30;130869;1258;107459;-81
2024/03/06 01:00:17;;;;;;;34.40;23.80;;;;;;;5.05;90.37;100490.80;130847;1258;106725;-82
2024/03/06 01:03:23;;;;;;;35.90;24.80;;;;;;;5.00;90.66;100486.27;130763;1260;108663;-81
2024/03/06 01:06:29;;;;;;;33.70;22.10;;;;;;;4.89;91.01;100489.48;130701;1255;106739;-82
2024/03/06 01:09:34;;;;;;;32.00;21.00;;;;;;;4.85;90.61;100494.24;130716;1258;108713;-81
2024/03/06 01:12:40;;;;;;;34.10;20.70;;;;;;;4.85;90.74;100491.20;131019;1255;106617;-82
2024/03/06 01:15:45;;;;;;;31.30;20.60;;;;;;;4.92;90.43;100489.16;130853;1259;107735;-82
2024/03/06 01:18:51;;;;;;;35.20;22.30;;;;;;;5.00;90.70;100493.64;130861;1259;107620;-82
2024/03/06 01:21:57;;;;;;;32.00;22.30;;;;;;;5.02;90.38;100498.08;130785;1258;107601;-82
2024/03/06 01:25:02;;;;;;;32.50;22.30;;;;;;;5.00;90.93;100496.27;130752;1256;108569;-82
2024/03/06 01:28:08;;;;;;;34.60;22.80;;;;;;;4.95;90.79;100495.23;130867;1258;106478;-82
2024/03/06 01:31:14;;;;;;;34.20;22.30;;;;;;;4.88;91.48;100499.48;130907;1257;108790;-82
2024/03/06 01:34:20;;;;;;;34.50;20.30;;;;;;;4.80;91.05;100499.15;131040;1255;108221;-82
2024/03/06 01:37:25;;;;;;;28.60;19.50;;;;;;;4.76;91.76;100502.78;130853;1270;108285;-82
2024/03/06 01:40:31;;;;;;;31.10;21.60;;;;;;;4.73;91.66;100502.99;130816;1258;106428;-82
2024/03/06 01:43:40;;;;;;;31.90;20.90;;;;;;;4.77;91.93;100512.03;130778;1258;108734;-81
2024/03/06 01:46:46;;;;;;;32.40;22.40;;;;;;;4.79;91.97;100517.55;130866;1258;107031;-81
2024/03/06 01:49:52;;;;;;;33.40;22.60;;;;;;;4.78;91.65;100517.09;130927;1256;107662;-81
2024/03/06 01:52:57;;;;;;;31.60;20.20;;;;;;;4.79;91.56;100515.10;130928;1255;108703;-81
2024/03/06 01:56:05;;;;;;;31.60;20.40;;;;;;;4.77;92.09;100513.84;130940;1258;108684;-82
2024/03/06 01:59:11;;;;;;;30.60;21.00;;;;;;;4.78;92.11;100516.27;130856;1255;108710;-81
2024/03/06 02:02:17;;;;;;;30.00;20.90;;;;;;;4.78;92.11;100515.89;130860;1256;107765;-81
2024/03/06 02:05:23;;;;;;;33.50;22.20;;;;;;;4.78;92.41;100511.13;130771;1258;108661;-82
2024/03/06 02:08:28;;;;;;;31.90;21.80;;;;;;;4.77;92.43;100509.75;130877;1255;107751;-81
2024/03/06 02:11:34;;;;;;;29.90;19.70;;;;;;;4.75;92.19;100513.45;130975;1256;107656;-82
2024/03/06 02:14:40;;;;;;;30.70;20.20;;;;;;;4.69;93.02;100513.50;131174;1258;106461;-82
2024/03/06 02:17:46;;;;;;;30.00;20.10;;;;;;;4.65;92.86;100505.82;130809;1260;106257;-82
2024/03/06 02:20:51;;;;;;;31.20;21.30;;;;;;;4.66;93.56;100507.02;130767;1256;106575;-82
2024/03/06 02:23:58;;;;;;;31.10;20.90;;;;;;;4.66;92.90;100503.45;130683;1260;108810;-82
2024/03/06 02:27:05;;;;;;;32.70;22.70;;;;;;;4.65;93.18;100505.48;130703;1260;108667;-81
2024/03/06 02:30:12;;;;;;;30.50;20.20;;;;;;;4.62;93.13;100504.27;130838;1260;107520;-82
2024/03/06 02:33:19;;;;;;;31.70;20.50;;;;;;;4.58;93.58;100503.20;130775;1257;106274;-81
2024/03/06 02:36:25;;;;;;;28.20;18.60;;;;;;;4.57;93.55;100506.22;130932;1255;108795;-82
2024/03/06 02:39:30;;;;;;;30.60;19.90;;;;;;;4.61;93.91;100498.73;130919;1255;109111;-81
2024/03/06 02:42:36;;;;;;;30.90;21.70;;;;;;;4.64;93.71;100499.55;130919;1258;106865;-82
2024/03/06 02:45:41;;;;;;;31.90;21.50;;;;;;;4.66;93.66;100501.04;130791;1256;107188;-81
2024/03/06 02:48:47;;;;;;;29.30;21.20;;;;;;;4.62;94.55;100500.27;130757;1259;107673;-81
2024/03/06 02:51:52;;;;;;;31.20;20.90;;;;;;;4.54;94.94;100500.48;130776;1259;106692;-81
2024/03/06 02:54:59;;;;;;;28.00;19.40;;;;;;;4.47;94.80;100499.35;130964;1258;107554;-81
2024/03/06 02:58:05;;;;;;;32.40;21.30;;;;;;;4.47;94.44;100505.37;130930;1256;108604;-81
2024/03/06 03:01:12;;;;;;;32.90;22.10;;;;;;;4.50;94.91;100509.01;130910;1258;108500;-81
2024/03/06 03:04:18;;;;;;;34.20;22.40;;;;;;;4.52;94.82;100509.06;130936;1259;108500;-81
2024/03/06 03:07:24;;;;;;;33.60;22.70;;;;;;;4.51;94.54;100510.33;130836;1256;106669;-81
2024/03/06 03:10:30;;;;;;;32.70;21.10;;;;;;;4.49;94.73;100508.77;130882;1258;107447;-81
2024/03/06 03:13:35;;;;;;;33.20;21.50;;;;;;;4.46;95.06;100512.45;131168;1258;108640;-81
2024/03/06 03:16:41;;;;;;;33.60;20.30;;;;;;;4.47;94.67;100515.05;130911;1257;108481;-81
2024/03/06 03:19:47;;;;;;;31.60;20.40;;;;;;;4.53;94.74;100515.12;130979;1256;107529;-81
2024/03/06 03:22:53;;;;;;;36.90;24.50;;;;;;;4.58;94.83;100513.95;130928;1255;108716;-81
2024/03/06 03:25:58;;;;;;;33.50;22.90;;;;;;;4.60;95.16;100516.80;130935;1258;107059;-81
2024/03/06 03:29:05;;;;;;;36.50;24.30;;;;;;;4.57;95.18;100510.81;130914;1256;107184;-81
2024/03/06 03:32:10;;;;;;;34.30;21.70;;;;;;;4.53;95.25;100509.18;130967;1255;108394;-81
2024/03/06 03:35:16;;;;;;;34.00;22.40;;;;;;;4.47;95.46;100511.48;130952;1258;106743;-82
2024/03/06 03:38:22;;;;;;;28.60;20.30;;;;;;;4.47;95.93;100512.23;131249;1258;106894;-82
2024/03/06 03:41:27;;;;;;;32.20;21.60;;;;;;;4.49;95.53;100516.48;131063;1256;107587;-81
2024/03/06 03:44:33;;;;;;;35.50;22.60;;;;;;;4.53;95.87;100517.61;130798;1255;108754;-81
2024/03/06 03:47:39;;;;;;;32.70;23.10;;;;;;;4.53;95.38;100514.80;130757;1258;107718;-81
2024/03/06 03:50:45;;;;;;;35.70;22.30;;;;;;;4.55;95.56;100515.89;130811;1258;108708;-79
2024/03/06 03:53:52;;;;;;;37.00;22.10;;;;;;;4.55;95.56;100513.62;131031;1255;106685;-79
2024/03/06 03:56:59;;;;;;;34.00;20.90;;;;;;;4.51;95.56;100517.74;130718;1258;108610;-82
2024/03/06 04:00:10;;;;;;;34.80;21.10;;;;;;;4.48;97.03;100517.41;131202;1258;106986;-82
2024/03/06 04:03:17;;;;;;;35.60;22.30;;;;;;;4.48;96.34;100515.86;131269;1256;108665;-82
2024/03/06 04:06:23;;;;;;;34.20;22.50;;;;;;;4.50;96.90;100516.27;131132;1256;108662;-82
2024/03/06 04:09:29;;;;;;;36.30;23.40;;;;;;;4.46;97.00;100515.63;130806;1256;108522;-81
2024/03/06 04:12:34;;;;;;;34.30;20.90;;;;;;;4.42;96.75;100511.14;130762;1255;107754;-81
2024/03/06 04:15:40;;;;;;;32.60;21.30;;;;;;;4.43;96.46;100511.09;130777;1258;108468;-82
2024/03/06 04:18:46;;;;;;;32.20;20.20;;;;;;;4.43;96.93;100509.52;130798;1258;106265;-81
2024/03/06 04:21:51;;;;;;;36.90;22.20;;;;;;;4.45;96.87;100506.70;130880;1258;108603;-82
2024/03/06 04:24:58;;;;;;;33.90;22.30;;;;;;;4.54;96.70;100509.08;130880;1256;107581;-82
2024/03/06 04:28:04;;;;;;;40.50;25.10;;;;;;;4.57;96.88;100509.39;130938;1256;108665;-82
2024/03/06 04:31:10;;;;;;;37.80;23.70;;;;;;;4.59;96.43;100509.28;130788;1259;107771;-81
2024/03/06 04:34:16;;;;;;;37.00;23.00;;;;;;;4.59;96.78;100511.95;130879;1258;106363;-81
2024/03/06 04:37:21;;;;;;;40.40;23.80;;;;;;;4.56;96.47;100510.52;131008;1257;108493;-82
2024/03/06 04:40:28;;;;;;;35.00;21.30;;;;;;;4.52;96.30;100512.21;130719;1256;108716;-82
2024/03/06 04:43:34;;;;;;;33.40;20.50;;;;;;;4.55;96.39;100522.05;130717;1259;108775;-81
2024/03/06 04:46:40;;;;;;;36.40;21.60;;;;;;;4.57;96.48;100518.02;130900;1256;107703;-82
2024/03/06 04:49:46;;;;;;;35.30;22.40;;;;;;;4.60;96.93;100522.25;130851;1260;107981;-82
2024/03/06 04:52:52;;;;;;;38.80;22.80;;;;;;;4.62;96.60;100519.44;130872;1256;107536;-82
2024/03/06 04:55:57;;;;;;;37.20;22.70;;;;;;;4.63;96.57;100522.90;130754;1256;107736;-82
2024/03/06 04:59:03;;;;;;;33.60;20.00;;;;;;;4.64;96.95;100525.11;130743;1259;107792;-82
2024/03/06 05:02:08;;;;;;;36.40;21.80;;;;;;;4.60;96.59;100530.51;130888;1258;106746;-82
2024/03/06 05:05:14;;;;;;;43.10;25.80;;;;;;;4.61;96.50;100533.06;130995;1258;108606;-82
2024/03/06 05:08:20;;;;;;;40.10;25.10;;;;;;;4.66;96.61;100536.44;130817;1257;108611;-81
2024/03/06 05:11:27;;;;;;;49.10;30.20;;;;;;;4.69;96.80;100542.56;130798;1254;107409;-82
2024/03/06 05:14:32;;;;;;;42.60;26.40;;;;;;;4.67;97.49;100547.11;130811;1257;108578;-82
2024/03/06 05:17:38;;;;;;;36.10;22.50;;;;;;;4.63;96.91;100549.54;130840;1257;108469;-81
2024/03/06 05:20:45;;;;;;;44.10;25.60;;;;;;;4.59;97.42;100548.02;130994;1258;107873;-82
2024/03/06 05:23:52;;;;;;;35.00;21.30;;;;;;;4.58;97.55;100550.77;130862;1258;108390;-82
2024/03/06 05:26:58;;;;;;;38.40;24.10;;;;;;;4.55;98.19;100550.41;130778;1257;106852;-83
2024/03/06 05:30:05;;;;;;;49.20;30.20;;;;;;;4.53;98.81;100549.33;130818;1259;107062;-82
2024/03/06 05:33:10;;;;;;;47.50;28.60;;;;;;;4.54;98.20;100552.77;130860;1258;107877;-83
2024/03/06 05:36:17;;;;;;;50.10;27.60;;;;;;;4.54;98.54;100552.63;130835;1258;107644;-81
2024/03/06 05:39:23;;;;;;;38.20;21.80;;;;;;;4.52;98.36;100555.71;130753;1254;107699;-82
2024/03/06 05:42:30;;;;;;;41.70;24.30;;;;;;;4.50;98.60;100556.92;130744;1256;106768;-82
2024/03/06 05:45:35;;;;;;;39.50;22.30;;;;;;;4.51;98.31;100554.55;130895;1258;108604;-82
2024/03/06 05:48:41;;;;;;;45.10;24.30;;;;;;;4.59;98.13;100558.27;131225;1258;106855;-84
2024/03/06 05:51:46;;;;;;;36.80;23.20;;;;;;;4.66;98.71;100559.84;130860;1257;107667;-83
2024/03/06 05:54:52;;;;;;;44.70;26.80;;;;;;;4.67;98.68;100561.34;130797;1256;108662;-79
2024/03/06 05:57:59;;;;;;;39.80;24.90;;;;;;;4.64;98.65;100560.90;130944;1255;108556;-79
2024/03/06 06:01:05;;;;;;;36.20;21.50;;;;;;;4.62;98.54;100564.54;131436;1258;106773;-79
2024/03/06 06:04:11;;;;;;;34.30;21.30;;;;;;;4.63;98.49;100567.84;131094;1258;107486;-80
2024/03/06 06:07:18;;;;;;;32.60;19.50;;;;;;;4.63;98.72;100566.58;131085;1256;105587;-80
2024/03/06 06:10:23;;;;;;;35.70;22.50;;;;;;;4.68;98.48;100568.03;131132;1258;107494;-80
2024/03/06 06:13:29;;;;;;;35.30;22.40;;;;;;;4.73;98.65;100570.31;131181;1255;107742;-80
2024/03/06 06:16:40;;;;;;;33.20;21.70;;;;;;;4.77;98.39;100574.30;131269;1258;107786;-79
2024/03/06 06:19:46;;;;;;;32.60;20.90;;;;;;;4.81;98.15;100578.95;131106;1256;108829;-80
2024/03/06 06:22:51;;;;;;;29.10;17.80;;;;;;;4.85;97.91;100582.18;131093;1255;106288;-80
2024/03/06 06:25:58;;;;;;;29.40;18.40;;;;;;;4.93;97.84;100585.84;131004;1256;107756;-79
2024/03/06 06:29:03;;;;;;;28.40;17.00;;;;;;;4.97;97.89;100588.02;131004;1259;107231;-80
2024/03/06 06:32:09;;;;;;;29.80;19.00;;;;;;;5.01;97.85;100588.60;131052;1258;108526;-79
2024/03/06 06:35:14;;;;;;;28.60;19.00;;;;;;;5.09;97.79;100586.27;131046;1259;107888;-80
2024/03/06 06:38:20;;;;;;;28.10;19.30;;;;;;;5.15;97.49;100592.73;131004;1258;108437;-80
2024/03/06 06:41:26;;;;;;;26.50;18.70;;;;;;;5.15;97.80;100592.73;130968;1258;107698;-79
2024/03/06 06:44:31;;;;;;;27.40;17.90;;;;;;;5.11;97.65;100595.27;131159;1255;108652;-79
2024/03/06 06:47:37;;;;;;;29.90;17.60;;;;;;;5.10;97.81;100597.33;131015;1259;106824;-81
2024/03/06 06:50:43;;;;;;;25.00;16.40;;;;;;;5.11;97.70;100599.02;131049;1257;107682;-80
2024/03/06 06:53:48;;;;;;;22.20;14.30;;;;;;;5.16;97.78;100602.90;131089;1259;107521;-80
2024/03/06 06:56:54;;;;;;;25.40;17.40;;;;;;;5.28;97.72;100602.01;131305;1256;108649;-80
2024/03/06 07:00:00;;;;;;;30.20;18.80;;;;;;;5.36;97.72;100600.05;131109;1258;108211;-82
2024/03/06 07:03:05;;;;;;;29.20;19.70;;;;;;;5.39;97.50;100606.02;131343;1258;106775;-82
2024/03/06 07:06:12;;;;;;;29.30;20.20;;;;;;;5.42;97.67;100609.48;131318;1256;108682;-82
2024/03/06 07:09:18;;;;;;;34.80;22.50;;;;;;;5.44;97.75;100606.66;131153;1257;107582;-82
2024/03/06 07:12:24;;;;;;;38.60;25.60;;;;;;;5.44;97.69;100609.88;131235;1258;107699;-82
2024/03/06 07:15:30;;;;;;;37.80;24.50;;;;;;;5.44;97.88;100609.89;131174;1258;106347;-82
2024/03/06 07:18:36;;;;;;;33.50;22.40;;;;;;;5.52;98.03;100611.24;131160;1258;108484;-82
2024/03/06 07:21:41;;;;;;;32.80;20.70;;;;;;;5.60;97.75;100611.01;131124;1258;107742;-82
2024/03/06 07:24:47;;;;;;;33.20;22.60;;;;;;;5.67;97.52;100611.55;131141;1258;107105;-82
2024/03/06 07:27:53;;;;;;;36.10;21.70;;;;;;;5.69;97.52;100612.80;131188;1257;107597;-82
2024/03/06 07:30:58;;;;;;;35.50;21.70;;;;;;;5.69;97.90;100616.52;131122;1256;106748;-82
2024/03/06 07:34:04;;;;;;;33.00;20.40;;;;;;;5.75;97.66;100616.61;131107;1256;106586;-82
2024/03/06 07:37:10;;;;;;;36.80;23.40;;;;;;;5.87;98.00;100616.94;131150;1258;107489;-81
2024/03/06 07:40:16;;;;;;;39.20;24.50;;;;;;;6.03;97.60;100617.05;131174;1259;106482;-81
2024/03/06 07:43:21;;;;;;;37.10;24.60;;;;;;;6.14;97.45;100618.89;131147;1258;107708;-81
2024/03/06 07:46:27;;;;;;;39.60;25.90;;;;;;;6.21;97.28;100621.66;131117;1256;108601;-81
2024/03/06 07:49:32;;;;;;;40.90;26.60;;;;;;;6.28;96.91;100623.85;131161;1258;106499;-81
2024/03/06 07:52:39;;;;;;;39.30;22.90;;;;;;;6.30;97.13;100625.64;131349;1256;107673;-80
2024/03/06 07:55:44;;;;;;;34.00;20.80;;;;;;;6.33;97.16;100625.79;130878;1258;109474;-81
2024/03/06 07:58:49;;;;;;;41.00;25.70;;;;;;;6.36;96.80;100628.19;130947;1261;107999;-83
2024/03/06 08:01:55;;;;;;;41.00;25.90;;;;;;;6.39;96.55;100629.54;131076;1261;109515;-81
2024/03/06 08:05:00;;;;;;;37.20;24.40;;;;;;;6.43;96.76;100633.48;131560;1261;107739;-81
2024/03/06 08:08:06;;;;;;;38.70;24.80;;;;;;;6.47;96.73;100632.67;131432;1256;107441;-80
2024/03/06 08:11:11;;;;;;;35.90;23.30;;;;;;;6.51;96.55;100637.80;131489;1262;107646;-79
2024/03/06 08:14:17;;;;;;;31.30;20.50;;;;;;;6.51;96.11;100639.05;130993;1257;106872;-79
2024/03/06 08:17:21;;;;;;;29.40;19.40;;;;;;;6.51;95.97;100641.40;131152;1262;108097;-80
2024/03/06 09:28:30;;;;;;;36.30;25.00;;;;;;;6.75;95.00;100685.63;128699;1280;648588;-81
2024/03/06 09:31:34;;;;;;;35.30;23.50;;;;;;;6.99;94.51;100690.20;130336;1260;297961;-81
2024/03/06 09:34:39;;;;;;;34.20;21.40;;;;;;;7.03;94.19;100684.02;130771;1264;110106;-83
2024/03/06 09:37:46;;;;;;;31.20;19.90;;;;;;;7.04;94.24;100686.41;130658;1264;106900;-82
2024/03/06 09:40:51;;;;;;;35.70;23.30;;;;;;;7.08;93.97;100689.08;131136;1263;109736;-82
2024/03/06 09:43:55;;;;;;;33.00;22.60;;;;;;;7.13;93.83;100689.12;131322;1261;108627;-82
2024/03/06 09:47:04;;;;;;;32.00;22.00;;;;;;;7.17;93.72;100691.11;130910;1260;107599;-81
2024/03/06 09:50:11;;;;;;;32.70;22.50;;;;;;;7.21;93.72;100694.87;131085;1260;106798;-81
2024/03/06 09:53:18;;;;;;;33.70;23.20;;;;;;;7.24;93.54;100697.42;132084;1247;107827;-82
2024/03/06 09:56:22;;;;;;;35.50;22.80;;;;;;;7.23;93.42;100700.15;131834;1248;107472;-81
2024/03/06 09:59:27;;;;;;;30.50;20.50;;;;;;;7.17;93.26;100702.00;131500;1253;109261;-81
2024/03/06 10:02:37;;;;;;;30.00;18.70;;;;;;;7.17;93.15;100707.71;131481;1253;108180;-81
2024/03/06 10:05:43;;;;;;;30.10;21.20;;;;;;;7.16;93.24;100706.73;131598;1254;107710;-81
2024/03/06 10:08:49;;;;;;;33.40;22.90;;;;;;;7.20;93.13;100707.80;131768;1248;109400;-81
2024/03/06 10:11:56;;;;;;;30.90;22.20;;;;;;;7.26;93.01;100712.13;131593;1254;108789;-81
2024/03/06 10:15:01;;;;;;;31.60;22.10;;;;;;;7.33;92.91;100711.80;131543;1254;107989;-81
2024/03/06 10:18:18;;;;;;;30.70;22.00;;;;;;;7.37;92.36;100716.95;131591;1251;107772;-81
2024/03/06 10:21:32;;;;;;;28.50;20.60;;;;;;;7.45;92.53;100711.87;131511;1253;109791;-81
2024/03/06 10:24:39;;;;;;;27.00;18.90;;;;;;;7.54;92.42;100711.36;131488;1253;107294;-81
2024/03/06 10:27:44;;;;;;;27.50;17.10;;;;;;;7.70;92.77;100707.93;131455;1254;107256;-81
2024/03/06 10:30:49;;;;;;;28.40;19.50;;;;;;;7.89;92.09;100707.67;131434;1253;108076;-80
2024/03/06 10:33:54;;;;;;;27.80;19.10;;;;;;;8.07;91.31;100707.48;131409;1249;107753;-81
2024/03/06 10:37:00;;;;;;;29.50;19.70;;;;;;;8.25;91.56;100705.44;131332;1248;107664;-81
2024/03/06 10:40:12;;;;;;;25.50;18.60;;;;;;;8.35;90.95;100711.15;131571;1256;107734;-81
2024/03/06 10:43:16;;;;;;;28.90;19.80;;;;;;;8.35;90.28;100715.06;131297;1271;107236;-81
2024/03/06 10:46:24;;;;;;;27.10;18.90;;;;;;;8.25;90.05;100714.31;131379;1248;107721;-81
2024/03/06 10:49:29;;;;;;;29.30;21.30;;;;;;;8.14;90.40;100716.27;131536;1253;106452;-81
2024/03/06 10:52:36;;;;;;;29.70;20.90;;;;;;;8.06;90.83;100720.46;131496;1253;107839;-81
2024/03/06 10:55:41;;;;;;;26.70;20.30;;;;;;;7.97;90.56;100723.31;131677;1254;107576;-82
2024/03/06 10:58:48;;;;;;;28.40;19.00;;;;;;;7.87;90.68;100723.08;131547;1263;106793;-80
2024/03/06 11:01:52;;;;;;;24.80;16.40;;;;;;;7.73;90.41;100720.95;131470;1256;109781;-82
2024/03/06 11:04:57;;;;;;;27.90;19.30;;;;;;;7.63;90.64;100723.88;131575;1263;107644;-81
2024/03/06 11:08:02;;;;;;;32.00;20.60;;;;;;;7.63;90.73;100723.88;131731;1264;107777;-81
2024/03/06 11:11:23;;;;;;;28.90;20.00;;;;;;;7.63;90.53;100723.23;131631;1253;107638;-81
2024/03/06 11:14:28;;;;;;;28.70;20.20;;;;;;;7.55;90.39;100722.97;131674;1248;107630;-81
2024/03/06 11:17:33;;;;;;;32.50;21.00;;;;;;;7.49;90.57;100725.52;131622;1254;107382;-81
2024/03/06 11:20:37;;;;;;;30.00;20.50;;;;;;;7.44;90.72;100732.45;131640;1254;109788;-81
2024/03/06 11:24:15;;;;;;;32.40;19.80;;;;;;;7.35;90.21;100735.63;131699;1261;107515;-81
2024/03/06 11:27:22;;;;;;;32.60;18.90;;;;;;;7.15;89.93;100739.50;131628;1254;107691;-82
2024/03/06 11:30:28;;;;;;;34.20;19.20;;;;;;;7.10;90.15;100739.38;131652;1257;107534;-81
2024/03/06 11:33:39;;;;;;;32.20;20.60;;;;;;;7.12;90.01;100738.51;131670;1252;109736;-81
2024/03/06 11:36:43;;;;;;;30.20;20.10;;;;;;;7.14;89.92;100739.64;131688;1255;109744;-81
2024/03/06 11:39:50;;;;;;;33.40;20.40;;;;;;;7.13;89.77;100745.91;131812;1254;109930;-81
2024/03/06 11:42:54;;;;;;;29.80;20.80;;;;;;;7.14;90.16;100743.89;131746;1254;107778;-81
2024/03/06 11:46:11;;;;;;;32.40;21.80;;;;;;;7.16;89.89;100747.10;131748;1254;109563;-81
2024/03/06 11:49:21;;;;;;;32.00;21.20;;;;;;;7.14;89.89;100750.93;131733;1257;109549;-81
2024/03/06 11:52:26;;;;;;;28.40;17.90;;;;;;;7.09;89.51;100755.77;131852;1254;108574;-81
2024/03/06 11:55:31;;;;;;;26.80;16.60;;;;;;;6.98;89.37;100759.95;131857;1253;107527;-81
2024/03/06 11:58:36;;;;;;;30.50;19.30;;;;;;;6.95;89.45;100759.61;131778;1251;107569;-81
2024/03/06 12:01:41;;;;;;;34.50;20.90;;;;;;;6.99;89.40;100761.59;131797;1253;108190;-81
2024/03/06 12:04:46;;;;;;;30.50;20.10;;;;;;;7.00;89.26;100762.07;131866;1254;109779;-81
2024/03/06 12:07:52;;;;;;;28.20;19.20;;;;;;;6.96;89.17;100765.38;131836;1254;109372;-81
2024/03/06 12:10:57;;;;;;;29.10;18.90;;;;;;;6.89;88.28;100762.56;131882;1263;106609;-81
2024/03/06 12:14:02;;;;;;;29.80;19.70;;;;;;;6.80;88.32;100768.40;131775;1254;109770;-81
2024/03/06 12:17:07;;;;;;;35.00;22.30;;;;;;;6.73;88.61;100764.66;131912;1256;107278;-81
2024/03/06 12:20:15;;;;;;;33.20;20.80;;;;;;;6.71;89.14;100767.83;131825;1256;107454;-81
2024/03/06 12:23:25;;;;;;;26.80;16.80;;;;;;;6.68;88.96;100764.63;131900;1257;106683;-81
2024/03/06 12:26:31;;;;;;;31.20;19.50;;;;;;;6.65;88.77;100768.93;131891;1253;109540;-81
2024/03/06 12:29:37;;;;;;;28.60;19.40;;;;;;;6.64;88.67;100764.63;131686;1250;108800;-81
2024/03/06 12:32:42;;;;;;;29.70;19.40;;;;;;;6.69;88.82;100767.77;131686;1257;106623;-81
2024/03/06 12:35:49;;;;;;;29.40;20.10;;;;;;;6.69;88.12;100766.66;131737;1257;107783;-80
2024/03/06 12:38:59;;;;;;;26.60;18.10;;;;;;;6.77;88.39;100768.45;131744;1255;108550;-80
2024/03/06 12:42:04;;;;;;;31.30;19.50;;;;;;;6.81;88.05;100771.31;131606;1257;107281;-80
2024/03/06 12:45:10;;;;;;;28.50;19.30;;;;;;;6.84;87.91;100772.11;131687;1251;106537;-83
2024/03/06 12:48:14;;;;;;;29.70;18.60;;;;;;;6.89;87.98;100768.01;131547;1260;109645;-83
2024/03/06 12:51:19;;;;;;;26.10;15.70;;;;;;;6.96;87.27;100773.02;131546;1257;108303;-81
2024/03/06 12:54:24;;;;;;;28.10;17.60;;;;;;;6.95;87.43;100778.23;131705;1251;107645;-81
2024/03/06 12:57:29;;;;;;;25.50;17.10;;;;;;;6.94;87.08;100778.42;131790;1254;107753;-82
2024/03/06 13:00:34;;;;;;;26.50;17.80;;;;;;;6.97;87.27;100783.68;131886;1266;109864;-80
2024/03/06 13:03:38;;;;;;;27.80;18.10;;;;;;;7.05;86.89;100781.13;131999;1264;109585;-81
2024/03/06 13:06:43;;;;;;;26.80;17.90;;;;;;;7.09;87.30;100784.94;131850;1251;107461;-81
2024/03/06 13:09:48;;;;;;;28.20;18.40;;;;;;;7.15;87.12;100783.63;131900;1251;106447;-81
2024/03/06 13:12:53;;;;;;;27.20;17.80;;;;;;;7.15;86.68;100786.95;131732;1256;108722;-81
2024/03/06 13:15:58;;;;;;;29.10;18.50;;;;;;;7.09;86.04;100789.55;131735;1251;107418;-81
2024/03/06 13:19:03;;;;;;;31.00;17.90;;;;;;;6.99;86.06;100793.84;131789;1264;107837;-81
2024/03/06 13:22:08;;;;;;;23.70;15.30;;;;;;;6.84;85.25;100797.58;131760;1256;109815;-81
2024/03/06 13:25:12;;;;;;;25.30;14.30;;;;;;;6.73;86.12;100792.10;131800;1255;107846;-81
2024/03/06 13:28:17;;;;;;;28.20;16.20;;;;;;;6.71;86.48;100796.27;131786;1257;107305;-81
2024/03/06 13:31:21;;;;;;;29.20;17.40;;;;;;;6.76;86.62;100797.52;131793;1251;109890;-81
2024/03/06 13:34:26;;;;;;;25.90;16.20;;;;;;;6.85;86.64;100795.60;131805;1251;107872;-81
2024/03/06 13:37:31;;;;;;;25.50;16.20;;;;;;;6.88;85.78;100799.25;131958;1254;107781;-81
2024/03/06 13:40:35;;;;;;;26.30;17.40;;;;;;;6.88;86.05;100798.02;131827;1254;109719;-81
2024/03/06 13:43:40;;;;;;;26.90;17.40;;;;;;;6.86;85.72;100797.11;131749;1251;109576;-81
2024/03/06 13:46:45;;;;;;;28.00;17.70;;;;;;;6.85;85.78;100795.73;131826;1257;107787;-81
2024/03/06 13:49:50;;;;;;;30.50;19.50;;;;;;;6.83;85.74;100800.86;131776;1251;107341;-81
2024/03/06 13:52:55;;;;;;;27.40;17.80;;;;;;;6.83;85.90;100802.45;131790;1251;108967;-81
2024/03/06 13:56:00;;;;;;;25.80;15.90;;;;;;;6.79;85.51;100803.99;131744;1256;107914;-81
2024/03/06 13:59:04;;;;;;;25.20;14.60;;;;;;;6.74;85.76;100805.27;131856;1256;109694;-81
2024/03/06 14:02:10;;;;;;;31.20;18.60;;;;;;;6.73;85.24;100805.14;131757;1266;109653;-81
2024/03/06 14:05:15;;;;;;;27.80;17.20;;;;;;;6.66;84.86;100807.21;131804;1251;106565;-81
2024/03/06 14:08:20;;;;;;;26.60;17.30;;;;;;;6.66;85.42;100808.30;131813;1251;109575;-81
2024/03/06 14:11:25;;;;;;;31.20;18.60;;;;;;;6.71;85.49;100810.93;131763;1257;109681;-81
2024/03/06 14:14:31;;;;;;;29.50;18.90;;;;;;;6.75;85.24;100811.75;131742;1254;107057;-81
2024/03/06 14:17:35;;;;;;;36.60;21.50;;;;;;;6.75;85.32;100816.85;131791;1251;109928;-81
2024/03/06 14:20:40;;;;;;;76.90;53.40;;;;;;;6.76;85.37;100814.31;132039;1256;107692;-81
2024/03/06 14:23:45;;;;;;;38.40;23.60;;;;;;;6.74;85.24;100813.90;131723;1256;109145;-81
2024/03/06 14:26:49;;;;;;;49.30;27.90;;;;;;;6.75;85.25;100812.07;131713;1263;109880;-81
2024/03/06 14:29:54;;;;;;;34.10;20.10;;;;;;;6.78;85.22;100811.49;131706;1273;107946;-81
2024/03/06 14:32:59;;;;;;;27.00;16.30;;;;;;;6.78;84.79;100808.83;131697;1267;107120;-81
2024/03/06 14:36:04;;;;;;;27.70;15.10;;;;;;;6.78;84.66;100811.30;131512;1261;109753;-81
2024/03/06 14:39:10;;;;;;;101.30;57.30;;;;;;;6.80;84.89;100810.08;131068;1251;108692;-80
2024/03/06 14:42:15;;;;;;;39.40;22.00;;;;;;;6.87;84.75;100811.34;131097;1264;109772;-81
2024/03/06 14:45:19;;;;;;;32.50;19.30;;;;;;;6.93;84.46;100814.62;131942;1254;109119;-81
2024/03/06 14:48:24;;;;;;;43.50;26.90;;;;;;;6.98;84.39;100812.27;131417;1256;107897;-81
2024/03/06 14:51:28;;;;;;;57.20;33.80;;;;;;;7.00;84.23;100814.23;131138;1251;109822;-81
2024/03/06 14:54:33;;;;;;;37.60;20.50;;;;;;;7.00;84.01;100811.96;131309;1257;109432;-81
2024/03/06 14:57:38;;;;;;;30.60;18.90;;;;;;;6.97;83.93;100812.19;131271;1251;106391;-81
2024/03/06 15:00:42;;;;;;;32.90;20.40;;;;;;;6.95;83.97;100817.64;131422;1257;109906;-81
2024/03/06 15:03:47;;;;;;;29.40;18.20;;;;;;;6.91;84.17;100817.05;131124;1251;109874;-81